sensor_id;sensor_type;location;lat;lon;timestamp;P1;durP1;ratioP1;P2;durP2;ratioP2
20695;SDS011;10507;52.754;13.040;2023-08-17T00:00:25;5.55;;;3.05;;
20695;SDS011;10507;52.754;13.040;2023-08-17T00:02:53;8.98;;;3.35;;
20695;SDS011;10507;52.754;13.040;2023-08-17T00:05:21;5.97;;;3.25;;
20695;SDS011;10507;52.754;13.040;2023-08-17T00:07:49;5.72;;;3.08;;
20695;SDS011;10507;52.754;13.040;2023-08-17T00:10:17;6.35;;;3.08;;
20695;SDS011;10507;52.754;13.040;2023-08-17T00:12:46;6.68;;;3.00;;
20695;SDS011;10507;52.754;13.040;2023-08-17T00:15:15;5.68;;;3.13;;
20695;SDS011;10507;52.754;13.040;2023-08-17T00:17:42;4.53;;;2.75;;
20695;SDS011;10507;52.754;13.040;2023-08-17T00:20:10;5.35;;;2.63;;
20695;SDS011;10507;52.754;13.040;2023-08-17T00:22:39;8.10;;;3.88;;
20695;SDS011;10507;52.754;13.040;2023-08-17T00:25:07;7.07;;;3.50;;
20695;SDS011;10507;52.754;13.040;2023-08-17T00:27:35;6.20;;;2.85;;
20695;SDS011;10507;52.754;13.040;2023-08-17T00:30:05;5.82;;;3.00;;
20695;SDS011;10507;52.754;13.040;2023-08-17T00:32:33;4.75;;;3.20;;
20695;SDS011;10507;52.754;13.040;2023-08-17T00:35:01;4.63;;;2.88;;
20695;SDS011;10507;52.754;13.040;2023-08-17T00:37:29;6.13;;;3.10;;
20695;SDS011;10507;52.754;13.040;2023-08-17T00:39:57;7.18;;;3.55;;
20695;SDS011;10507;52.754;13.040;2023-08-17T00:42:25;8.50;;;3.13;;
20695;SDS011;10507;52.754;13.040;2023-08-17T00:44:53;4.75;;;2.50;;
20695;SDS011;10507;52.754;13.040;2023-08-17T00:47:23;6.63;;;2.72;;
20695;SDS011;10507;52.754;13.040;2023-08-17T00:49:52;5.57;;;2.95;;
20695;SDS011;10507;52.754;13.040;2023-08-17T00:52:21;7.53;;;3.90;;
20695;SDS011;10507;52.754;13.040;2023-08-17T00:54:49;7.82;;;3.10;;
20695;SDS011;10507;52.754;13.040;2023-08-17T00:57:17;6.07;;;3.70;;
20695;SDS011;10507;52.754;13.040;2023-08-17T00:59:46;5.00;;;2.95;;
20695;SDS011;10507;52.754;13.040;2023-08-17T01:02:31;8.65;;;3.63;;
20695;SDS011;10507;52.754;13.040;2023-08-17T01:05:00;7.63;;;3.08;;
20695;SDS011;10507;52.754;13.040;2023-08-17T01:07:28;6.35;;;3.10;;
20695;SDS011;10507;52.754;13.040;2023-08-17T01:09:56;6.03;;;2.72;;
20695;SDS011;10507;52.754;13.040;2023-08-17T01:12:24;8.95;;;3.72;;
20695;SDS011;10507;52.754;13.040;2023-08-17T01:14:59;5.32;;;3.17;;
20695;SDS011;10507;52.754;13.040;2023-08-17T01:17:36;4.90;;;3.00;;
20695;SDS011;10507;52.754;13.040;2023-08-17T01:20:07;6.60;;;2.95;;
20695;SDS011;10507;52.754;13.040;2023-08-17T01:22:38;7.57;;;3.35;;
20695;SDS011;10507;52.754;13.040;2023-08-17T01:25:10;6.88;;;3.20;;
20695;SDS011;10507;52.754;13.040;2023-08-17T01:27:39;5.57;;;3.45;;
20695;SDS011;10507;52.754;13.040;2023-08-17T01:30:08;9.40;;;3.70;;
20695;SDS011;10507;52.754;13.040;2023-08-17T01:32:39;7.95;;;3.30;;
20695;SDS011;10507;52.754;13.040;2023-08-17T01:35:14;6.10;;;3.28;;
20695;SDS011;10507;52.754;13.040;2023-08-17T01:37:47;7.88;;;3.47;;
20695;SDS011;10507;52.754;13.040;2023-08-17T01:40:19;4.78;;;3.53;;
20695;SDS011;10507;52.754;13.040;2023-08-17T01:42:48;4.90;;;3.45;;
20695;SDS011;10507;52.754;13.040;2023-08-17T01:45:18;4.97;;;3.83;;
20695;SDS011;10507;52.754;13.040;2023-08-17T01:47:45;7.72;;;3.17;;
20695;SDS011;10507;52.754;13.040;2023-08-17T01:50:14;6.38;;;2.92;;
20695;SDS011;10507;52.754;13.040;2023-08-17T01:52:42;7.55;;;3.22;;
20695;SDS011;10507;52.754;13.040;2023-08-17T01:55:10;5.13;;;3.33;;
20695;SDS011;10507;52.754;13.040;2023-08-17T01:57:39;3.80;;;2.67;;
20695;SDS011;10507;52.754;13.040;2023-08-17T02:00:07;7.55;;;3.20;;
20695;SDS011;10507;52.754;13.040;2023-08-17T02:02:37;4.65;;;3.00;;
20695;SDS011;10507;52.754;13.040;2023-08-17T02:05:05;8.18;;;3.22;;
20695;SDS011;10507;52.754;13.040;2023-08-17T02:07:34;6.20;;;2.80;;
20695;SDS011;10507;52.754;13.040;2023-08-17T02:10:01;7.68;;;3.40;;
20695;SDS011;10507;52.754;13.040;2023-08-17T02:12:29;3.70;;;2.70;;
20695;SDS011;10507;52.754;13.040;2023-08-17T02:14:58;6.97;;;2.53;;
20695;SDS011;10507;52.754;13.040;2023-08-17T02:17:26;5.38;;;3.05;;
20695;SDS011;10507;52.754;13.040;2023-08-17T02:19:56;3.38;;;2.50;;
20695;SDS011;10507;52.754;13.040;2023-08-17T02:22:24;5.65;;;3.03;;
20695;SDS011;10507;52.754;13.040;2023-08-17T02:24:51;6.35;;;2.75;;
20695;SDS011;10507;52.754;13.040;2023-08-17T02:27:19;5.25;;;2.22;;
20695;SDS011;10507;52.754;13.040;2023-08-17T02:29:47;4.10;;;2.50;;
20695;SDS011;10507;52.754;13.040;2023-08-17T02:32:17;4.97;;;2.30;;
20695;SDS011;10507;52.754;13.040;2023-08-17T02:34:44;6.35;;;2.50;;
20695;SDS011;10507;52.754;13.040;2023-08-17T02:37:12;4.78;;;2.40;;
20695;SDS011;10507;52.754;13.040;2023-08-17T02:39:40;4.25;;;2.35;;
20695;SDS011;10507;52.754;13.040;2023-08-17T02:42:08;4.65;;;2.38;;
20695;SDS011;10507;52.754;13.040;2023-08-17T02:44:36;3.45;;;2.13;;
20695;SDS011;10507;52.754;13.040;2023-08-17T02:47:04;4.60;;;2.08;;
20695;SDS011;10507;52.754;13.040;2023-08-17T02:49:34;3.90;;;2.22;;
20695;SDS011;10507;52.754;13.040;2023-08-17T02:52:02;5.43;;;2.28;;
20695;SDS011;10507;52.754;13.040;2023-08-17T02:54:30;4.15;;;1.88;;
20695;SDS011;10507;52.754;13.040;2023-08-17T02:56:59;4.40;;;2.08;;
20695;SDS011;10507;52.754;13.040;2023-08-17T02:59:27;3.25;;;2.35;;
20695;SDS011;10507;52.754;13.040;2023-08-17T03:01:55;3.65;;;2.10;;
20695;SDS011;10507;52.754;13.040;2023-08-17T03:04:23;5.88;;;2.55;;
20695;SDS011;10507;52.754;13.040;2023-08-17T03:06:53;3.63;;;2.10;;
20695;SDS011;10507;52.754;13.040;2023-08-17T03:09:20;4.97;;;2.15;;
20695;SDS011;10507;52.754;13.040;2023-08-17T03:11:49;3.15;;;1.80;;
20695;SDS011;10507;52.754;13.040;2023-08-17T03:14:17;3.20;;;2.10;;
20695;SDS011;10507;52.754;13.040;2023-08-17T03:16:44;4.30;;;2.13;;
20695;SDS011;10507;52.754;13.040;2023-08-17T03:19:12;4.43;;;2.30;;
20695;SDS011;10507;52.754;13.040;2023-08-17T03:21:43;3.33;;;1.70;;
20695;SDS011;10507;52.754;13.040;2023-08-17T03:24:12;4.18;;;2.08;;
20695;SDS011;10507;52.754;13.040;2023-08-17T03:26:40;4.97;;;2.03;;
20695;SDS011;10507;52.754;13.040;2023-08-17T03:29:08;5.93;;;2.42;;
20695;SDS011;10507;52.754;13.040;2023-08-17T03:31:38;3.08;;;2.05;;
20695;SDS011;10507;52.754;13.040;2023-08-17T03:34:05;4.00;;;1.88;;
20695;SDS011;10507;52.754;13.040;2023-08-17T03:36:33;5.32;;;1.77;;
20695;SDS011;10507;52.754;13.040;2023-08-17T03:39:01;4.82;;;2.40;;
20695;SDS011;10507;52.754;13.040;2023-08-17T03:41:31;4.60;;;1.80;;
20695;SDS011;10507;52.754;13.040;2023-08-17T03:43:59;3.88;;;1.98;;
20695;SDS011;10507;52.754;13.040;2023-08-17T03:46:28;3.25;;;1.90;;
20695;SDS011;10507;52.754;13.040;2023-08-17T03:48:56;4.88;;;1.90;;
20695;SDS011;10507;52.754;13.040;2023-08-17T03:51:24;2.55;;;1.85;;
20695;SDS011;10507;52.754;13.040;2023-08-17T03:53:51;5.25;;;2.15;;
20695;SDS011;10507;52.754;13.040;2023-08-17T03:56:20;4.00;;;2.20;;
20695;SDS011;10507;52.754;13.040;2023-08-17T03:58:49;4.20;;;1.80;;
20695;SDS011;10507;52.754;13.040;2023-08-17T04:01:17;4.13;;;1.83;;
20695;SDS011;10507;52.754;13.040;2023-08-17T04:03:45;5.13;;;2.05;;
20695;SDS011;10507;52.754;13.040;2023-08-17T04:06:13;3.10;;;1.77;;
20695;SDS011;10507;52.754;13.040;2023-08-17T04:08:41;3.60;;;1.80;;
20695;SDS011;10507;52.754;13.040;2023-08-17T04:11:09;3.33;;;1.88;;
20695;SDS011;10507;52.754;13.040;2023-08-17T04:13:37;7.63;;;2.40;;
20695;SDS011;10507;52.754;13.040;2023-08-17T04:16:06;4.57;;;2.20;;
20695;SDS011;10507;52.754;13.040;2023-08-17T04:18:34;4.28;;;2.10;;
20695;SDS011;10507;52.754;13.040;2023-08-17T04:21:02;6.35;;;2.28;;
20695;SDS011;10507;52.754;13.040;2023-08-17T04:23:34;4.65;;;2.28;;
20695;SDS011;10507;52.754;13.040;2023-08-17T04:26:02;2.83;;;2.00;;
20695;SDS011;10507;52.754;13.040;2023-08-17T04:28:30;3.67;;;2.10;;
20695;SDS011;10507;52.754;13.040;2023-08-17T04:30:58;5.80;;;1.98;;
20695;SDS011;10507;52.754;13.040;2023-08-17T04:33:27;3.40;;;2.03;;
20695;SDS011;10507;52.754;13.040;2023-08-17T04:35:55;5.05;;;2.22;;
20695;SDS011;10507;52.754;13.040;2023-08-17T04:38:25;3.67;;;1.90;;
20695;SDS011;10507;52.754;13.040;2023-08-17T04:40:53;5.68;;;2.10;;
20695;SDS011;10507;52.754;13.040;2023-08-17T04:43:21;3.65;;;1.70;;
20695;SDS011;10507;52.754;13.040;2023-08-17T04:45:48;4.00;;;1.70;;
20695;SDS011;10507;52.754;13.040;2023-08-17T04:48:16;4.28;;;1.90;;
20695;SDS011;10507;52.754;13.040;2023-08-17T04:50:45;3.53;;;1.70;;
20695;SDS011;10507;52.754;13.040;2023-08-17T04:53:13;4.60;;;1.98;;
20695;SDS011;10507;52.754;13.040;2023-08-17T04:55:41;3.92;;;1.60;;
20695;SDS011;10507;52.754;13.040;2023-08-17T04:58:09;3.95;;;1.95;;
20695;SDS011;10507;52.754;13.040;2023-08-17T05:00:37;2.47;;;1.45;;
20695;SDS011;10507;52.754;13.040;2023-08-17T05:03:05;4.40;;;1.77;;
20695;SDS011;10507;52.754;13.040;2023-08-17T05:05:46;3.72;;;1.63;;
20695;SDS011;10507;52.754;13.040;2023-08-17T05:08:14;4.80;;;1.58;;
20695;SDS011;10507;52.754;13.040;2023-08-17T05:10:42;4.70;;;1.70;;
20695;SDS011;10507;52.754;13.040;2023-08-17T05:13:10;9.02;;;1.70;;
20695;SDS011;10507;52.754;13.040;2023-08-17T05:15:38;4.13;;;1.60;;
20695;SDS011;10507;52.754;13.040;2023-08-17T05:18:07;5.43;;;1.95;;
20695;SDS011;10507;52.754;13.040;2023-08-17T05:20:35;3.03;;;1.50;;
20695;SDS011;10507;52.754;13.040;2023-08-17T05:23:04;3.95;;;1.58;;
20695;SDS011;10507;52.754;13.040;2023-08-17T05:25:32;2.40;;;1.40;;
20695;SDS011;10507;52.754;13.040;2023-08-17T05:28:00;4.13;;;1.25;;
20695;SDS011;10507;52.754;13.040;2023-08-17T05:30:28;2.25;;;1.40;;
20695;SDS011;10507;52.754;13.040;2023-08-17T05:32:56;4.55;;;1.70;;
20695;SDS011;10507;52.754;13.040;2023-08-17T05:35:25;2.28;;;1.20;;
20695;SDS011;10507;52.754;13.040;2023-08-17T05:37:53;2.30;;;1.15;;
20695;SDS011;10507;52.754;13.040;2023-08-17T05:40:22;2.58;;;1.20;;
20695;SDS011;10507;52.754;13.040;2023-08-17T05:42:50;3.63;;;1.73;;
20695;SDS011;10507;52.754;13.040;2023-08-17T05:45:18;1.98;;;1.27;;
20695;SDS011;10507;52.754;13.040;2023-08-17T05:47:46;4.28;;;1.42;;
20695;SDS011;10507;52.754;13.040;2023-08-17T05:50:14;4.82;;;1.30;;
20695;SDS011;10507;52.754;13.040;2023-08-17T05:52:42;2.72;;;1.40;;
20695;SDS011;10507;52.754;13.040;2023-08-17T05:55:10;2.00;;;1.23;;
20695;SDS011;10507;52.754;13.040;2023-08-17T05:57:39;2.45;;;1.45;;
20695;SDS011;10507;52.754;13.040;2023-08-17T06:00:07;2.42;;;1.17;;
20695;SDS011;10507;52.754;13.040;2023-08-17T06:02:38;4.05;;;1.45;;
20695;SDS011;10507;52.754;13.040;2023-08-17T06:05:06;3.55;;;1.42;;
20695;SDS011;10507;52.754;13.040;2023-08-17T06:07:35;2.70;;;1.20;;
20695;SDS011;10507;52.754;13.040;2023-08-17T06:10:03;3.38;;;1.52;;
20695;SDS011;10507;52.754;13.040;2023-08-17T06:12:32;3.50;;;1.38;;
20695;SDS011;10507;52.754;13.040;2023-08-17T06:15:02;4.35;;;1.50;;
20695;SDS011;10507;52.754;13.040;2023-08-17T06:17:31;4.75;;;1.50;;
20695;SDS011;10507;52.754;13.040;2023-08-17T06:19:58;1.58;;;1.38;;
20695;SDS011;10507;52.754;13.040;2023-08-17T06:22:26;2.47;;;1.20;;
20695;SDS011;10507;52.754;13.040;2023-08-17T06:24:54;3.55;;;1.40;;
20695;SDS011;10507;52.754;13.040;2023-08-17T06:27:24;4.05;;;1.30;;
20695;SDS011;10507;52.754;13.040;2023-08-17T06:29:52;2.88;;;1.30;;
20695;SDS011;10507;52.754;13.040;2023-08-17T06:32:21;3.47;;;1.33;;
20695;SDS011;10507;52.754;13.040;2023-08-17T06:34:49;2.75;;;1.33;;
20695;SDS011;10507;52.754;13.040;2023-08-17T06:37:17;2.92;;;1.00;;
20695;SDS011;10507;52.754;13.040;2023-08-17T06:39:45;3.33;;;1.17;;
20695;SDS011;10507;52.754;13.040;2023-08-17T06:42:13;5.00;;;1.42;;
20695;SDS011;10507;52.754;13.040;2023-08-17T06:44:41;2.55;;;1.30;;
20695;SDS011;10507;52.754;13.040;2023-08-17T06:47:09;2.50;;;0.75;;
20695;SDS011;10507;52.754;13.040;2023-08-17T06:49:38;1.58;;;0.90;;
20695;SDS011;10507;52.754;13.040;2023-08-17T06:52:06;3.60;;;1.17;;
20695;SDS011;10507;52.754;13.040;2023-08-17T06:54:34;1.50;;;1.17;;
20695;SDS011;10507;52.754;13.040;2023-08-17T06:57:02;5.47;;;1.10;;
20695;SDS011;10507;52.754;13.040;2023-08-17T06:59:30;2.05;;;1.02;;
20695;SDS011;10507;52.754;13.040;2023-08-17T07:01:59;1.48;;;0.80;;
20695;SDS011;10507;52.754;13.040;2023-08-17T07:04:28;2.13;;;1.10;;
20695;SDS011;10507;52.754;13.040;2023-08-17T07:06:57;2.80;;;1.17;;
20695;SDS011;10507;52.754;13.040;2023-08-17T07:09:26;1.58;;;1.02;;
20695;SDS011;10507;52.754;13.040;2023-08-17T07:11:55;1.65;;;0.98;;
20695;SDS011;10507;52.754;13.040;2023-08-17T07:14:23;2.88;;;1.25;;
20695;SDS011;10507;52.754;13.040;2023-08-17T07:16:51;1.95;;;1.10;;
20695;SDS011;10507;52.754;13.040;2023-08-17T07:19:19;2.58;;;0.90;;
20695;SDS011;10507;52.754;13.040;2023-08-17T07:21:58;2.42;;;1.40;;
20695;SDS011;10507;52.754;13.040;2023-08-17T07:24:25;5.05;;;1.30;;
20695;SDS011;10507;52.754;13.040;2023-08-17T07:26:53;3.60;;;1.05;;
20695;SDS011;10507;52.754;13.040;2023-08-17T07:29:22;3.45;;;1.52;;
20695;SDS011;10507;52.754;13.040;2023-08-17T07:31:50;4.07;;;1.45;;
20695;SDS011;10507;52.754;13.040;2023-08-17T07:34:19;2.60;;;1.30;;
20695;SDS011;10507;52.754;13.040;2023-08-17T07:36:47;1.98;;;1.20;;
20695;SDS011;10507;52.754;13.040;2023-08-17T07:39:16;2.00;;;1.27;;
20695;SDS011;10507;52.754;13.040;2023-08-17T07:41:45;4.45;;;1.50;;
20695;SDS011;10507;52.754;13.040;2023-08-17T07:44:12;2.38;;;1.35;;
20695;SDS011;10507;52.754;13.040;2023-08-17T07:46:40;2.78;;;1.73;;
20695;SDS011;10507;52.754;13.040;2023-08-17T07:49:08;2.75;;;1.15;;
20695;SDS011;10507;52.754;13.040;2023-08-17T07:51:56;3.47;;;1.77;;
20695;SDS011;10507;52.754;13.040;2023-08-17T07:54:25;2.17;;;1.33;;
20695;SDS011;10507;52.754;13.040;2023-08-17T07:56:53;3.30;;;1.48;;
20695;SDS011;10507;52.754;13.040;2023-08-17T07:59:22;2.80;;;1.60;;
20695;SDS011;10507;52.754;13.040;2023-08-17T08:01:49;4.57;;;1.75;;
20695;SDS011;10507;52.754;13.040;2023-08-17T08:04:17;3.33;;;1.60;;
20695;SDS011;10507;52.754;13.040;2023-08-17T08:06:46;2.30;;;1.55;;
20695;SDS011;10507;52.754;13.040;2023-08-17T08:09:14;4.05;;;1.50;;
20695;SDS011;10507;52.754;13.040;2023-08-17T08:11:43;5.63;;;1.88;;
20695;SDS011;10507;52.754;13.040;2023-08-17T08:14:11;4.47;;;2.13;;
20695;SDS011;10507;52.754;13.040;2023-08-17T08:16:39;3.97;;;1.80;;
20695;SDS011;10507;52.754;13.040;2023-08-17T08:19:07;3.00;;;1.70;;
20695;SDS011;10507;52.754;13.040;2023-08-17T08:21:35;4.57;;;1.77;;
20695;SDS011;10507;52.754;13.040;2023-08-17T08:24:03;2.83;;;1.80;;
20695;SDS011;10507;52.754;13.040;2023-08-17T08:26:45;2.60;;;1.48;;
20695;SDS011;10507;52.754;13.040;2023-08-17T08:29:12;3.78;;;1.92;;
20695;SDS011;10507;52.754;13.040;2023-08-17T08:31:40;3.83;;;2.15;;
20695;SDS011;10507;52.754;13.040;2023-08-17T08:34:08;6.25;;;2.05;;
20695;SDS011;10507;52.754;13.040;2023-08-17T08:36:36;4.65;;;1.80;;
20695;SDS011;10507;52.754;13.040;2023-08-17T08:39:04;4.00;;;2.30;;
20695;SDS011;10507;52.754;13.040;2023-08-17T08:41:32;3.72;;;2.10;;
20695;SDS011;10507;52.754;13.040;2023-08-17T08:44:02;4.78;;;1.98;;
20695;SDS011;10507;52.754;13.040;2023-08-17T08:46:30;3.05;;;1.98;;
20695;SDS011;10507;52.754;13.040;2023-08-17T08:49:01;3.60;;;2.28;;
20695;SDS011;10507;52.754;13.040;2023-08-17T08:51:34;3.95;;;2.28;;
20695;SDS011;10507;52.754;13.040;2023-08-17T08:54:05;4.93;;;1.92;;
20695;SDS011;10507;52.754;13.040;2023-08-17T08:56:39;4.55;;;2.67;;
20695;SDS011;10507;52.754;13.040;2023-08-17T08:59:14;3.72;;;1.95;;
20695;SDS011;10507;52.754;13.040;2023-08-17T09:01:44;3.15;;;1.60;;
20695;SDS011;10507;52.754;13.040;2023-08-17T09:04:14;4.32;;;1.80;;
20695;SDS011;10507;52.754;13.040;2023-08-17T09:06:43;3.65;;;1.85;;
20695;SDS011;10507;52.754;13.040;2023-08-17T09:09:12;2.63;;;1.77;;
20695;SDS011;10507;52.754;13.040;2023-08-17T09:11:43;4.53;;;1.95;;
20695;SDS011;10507;52.754;13.040;2023-08-17T09:14:12;5.25;;;2.90;;
20695;SDS011;10507;52.754;13.040;2023-08-17T09:16:41;4.35;;;2.53;;
20695;SDS011;10507;52.754;13.040;2023-08-17T09:19:09;3.17;;;2.13;;
20695;SDS011;10507;52.754;13.040;2023-08-17T09:21:38;5.78;;;2.20;;
20695;SDS011;10507;52.754;13.040;2023-08-17T09:24:06;4.22;;;2.55;;
20695;SDS011;10507;52.754;13.040;2023-08-17T09:26:34;4.53;;;2.22;;
20695;SDS011;10507;52.754;13.040;2023-08-17T09:29:05;2.65;;;1.70;;
20695;SDS011;10507;52.754;13.040;2023-08-17T09:31:45;3.60;;;1.95;;
20695;SDS011;10507;52.754;13.040;2023-08-17T09:34:14;5.30;;;1.90;;
20695;SDS011;10507;52.754;13.040;2023-08-17T09:36:45;3.20;;;1.83;;
20695;SDS011;10507;52.754;13.040;2023-08-17T09:39:15;3.53;;;1.83;;
20695;SDS011;10507;52.754;13.040;2023-08-17T09:41:44;3.60;;;1.73;;
20695;SDS011;10507;52.754;13.040;2023-08-17T09:47:54;3.28;;;1.77;;
20695;SDS011;10507;52.754;13.040;2023-08-17T09:50:22;4.28;;;1.80;;
20695;SDS011;10507;52.754;13.040;2023-08-17T09:52:52;3.15;;;2.05;;
20695;SDS011;10507;52.754;13.040;2023-08-17T09:55:20;6.22;;;1.98;;
20695;SDS011;10507;52.754;13.040;2023-08-17T09:57:49;4.00;;;1.67;;
20695;SDS011;10507;52.754;13.040;2023-08-17T10:00:19;3.38;;;1.73;;
20695;SDS011;10507;52.754;13.040;2023-08-17T10:02:49;5.40;;;2.15;;
20695;SDS011;10507;52.754;13.040;2023-08-17T10:05:19;3.90;;;1.60;;
20695;SDS011;10507;52.754;13.040;2023-08-17T10:07:51;2.80;;;1.83;;
20695;SDS011;10507;52.754;13.040;2023-08-17T10:10:28;4.63;;;2.00;;
20695;SDS011;10507;52.754;13.040;2023-08-17T10:13:03;3.30;;;1.80;;
20695;SDS011;10507;52.754;13.040;2023-08-17T10:15:37;2.92;;;2.10;;
20695;SDS011;10507;52.754;13.040;2023-08-17T10:18:15;4.07;;;1.65;;
20695;SDS011;10507;52.754;13.040;2023-08-17T10:20:52;2.90;;;1.88;;
20695;SDS011;10507;52.754;13.040;2023-08-17T10:23:26;2.58;;;1.77;;
20695;SDS011;10507;52.754;13.040;2023-08-17T10:25:55;3.58;;;1.90;;
20695;SDS011;10507;52.754;13.040;2023-08-17T10:28:23;3.10;;;1.80;;
20695;SDS011;10507;52.754;13.040;2023-08-17T10:30:52;3.90;;;2.00;;
20695;SDS011;10507;52.754;13.040;2023-08-17T10:33:24;2.40;;;1.40;;
20695;SDS011;10507;52.754;13.040;2023-08-17T10:35:54;4.20;;;1.77;;
20695;SDS011;10507;52.754;13.040;2023-08-17T10:38:23;3.10;;;1.70;;
20695;SDS011;10507;52.754;13.040;2023-08-17T10:43:52;2.65;;;1.77;;
20695;SDS011;10507;52.754;13.040;2023-08-17T10:46:21;5.57;;;1.75;;
20695;SDS011;10507;52.754;13.040;2023-08-17T10:49:00;3.40;;;2.17;;
20695;SDS011;10507;52.754;13.040;2023-08-17T10:51:34;3.17;;;1.77;;
20695;SDS011;10507;52.754;13.040;2023-08-17T10:54:03;2.30;;;1.67;;
20695;SDS011;10507;52.754;13.040;2023-08-17T10:56:32;3.38;;;1.70;;
20695;SDS011;10507;52.754;13.040;2023-08-17T10:59:00;4.25;;;2.25;;
20695;SDS011;10507;52.754;13.040;2023-08-17T11:01:31;2.88;;;2.00;;
20695;SDS011;10507;52.754;13.040;2023-08-17T11:04:10;3.45;;;1.77;;
20695;SDS011;10507;52.754;13.040;2023-08-17T11:06:41;4.55;;;1.88;;
20695;SDS011;10507;52.754;13.040;2023-08-17T11:09:10;2.90;;;1.75;;
20695;SDS011;10507;52.754;13.040;2023-08-17T11:11:38;4.47;;;2.08;;
20695;SDS011;10507;52.754;13.040;2023-08-17T11:14:06;3.55;;;2.00;;
20695;SDS011;10507;52.754;13.040;2023-08-17T11:16:34;2.65;;;1.95;;
20695;SDS011;10507;52.754;13.040;2023-08-17T11:19:02;2.20;;;1.65;;
20695;SDS011;10507;52.754;13.040;2023-08-17T11:21:30;4.50;;;2.10;;
20695;SDS011;10507;52.754;13.040;2023-08-17T11:24:00;3.83;;;2.10;;
20695;SDS011;10507;52.754;13.040;2023-08-17T11:26:28;2.95;;;1.80;;
20695;SDS011;10507;52.754;13.040;2023-08-17T11:29:01;4.57;;;1.92;;
20695;SDS011;10507;52.754;13.040;2023-08-17T11:31:31;2.97;;;2.15;;
20695;SDS011;10507;52.754;13.040;2023-08-17T11:34:03;4.35;;;2.35;;
20695;SDS011;10507;52.754;13.040;2023-08-17T11:36:32;2.13;;;1.70;;
20695;SDS011;10507;52.754;13.040;2023-08-17T11:39:01;3.75;;;1.85;;
20695;SDS011;10507;52.754;13.040;2023-08-17T11:41:35;3.00;;;1.83;;
20695;SDS011;10507;52.754;13.040;2023-08-17T11:44:03;3.63;;;1.98;;
20695;SDS011;10507;52.754;13.040;2023-08-17T11:46:32;3.65;;;1.90;;
20695;SDS011;10507;52.754;13.040;2023-08-17T11:49:00;2.75;;;1.88;;
20695;SDS011;10507;52.754;13.040;2023-08-17T11:51:28;3.33;;;2.22;;
20695;SDS011;10507;52.754;13.040;2023-08-17T11:54:00;3.80;;;2.10;;
20695;SDS011;10507;52.754;13.040;2023-08-17T11:56:31;3.30;;;2.10;;
20695;SDS011;10507;52.754;13.040;2023-08-17T11:59:10;2.08;;;1.75;;
20695;SDS011;10507;52.754;13.040;2023-08-17T12:01:40;4.78;;;1.70;;
20695;SDS011;10507;52.754;13.040;2023-08-17T12:04:08;2.78;;;2.10;;
20695;SDS011;10507;52.754;13.040;2023-08-17T12:06:36;2.75;;;2.00;;
20695;SDS011;10507;52.754;13.040;2023-08-17T12:09:11;3.20;;;2.05;;
20695;SDS011;10507;52.754;13.040;2023-08-17T12:11:40;4.43;;;2.15;;
20695;SDS011;10507;52.754;13.040;2023-08-17T12:14:08;2.88;;;1.90;;
20695;SDS011;10507;52.754;13.040;2023-08-17T12:16:44;2.63;;;2.17;;
20695;SDS011;10507;52.754;13.040;2023-08-17T12:19:14;3.63;;;2.75;;
20695;SDS011;10507;52.754;13.040;2023-08-17T12:21:42;3.35;;;1.90;;
20695;SDS011;10507;52.754;13.040;2023-08-17T12:24:12;3.78;;;2.22;;
20695;SDS011;10507;52.754;13.040;2023-08-17T12:26:41;3.38;;;1.95;;
20695;SDS011;10507;52.754;13.040;2023-08-17T12:29:10;5.43;;;2.53;;
20695;SDS011;10507;52.754;13.040;2023-08-17T12:31:38;3.55;;;1.80;;
20695;SDS011;10507;52.754;13.040;2023-08-17T12:34:06;4.57;;;2.30;;
20695;SDS011;10507;52.754;13.040;2023-08-17T12:36:34;3.80;;;2.25;;
20695;SDS011;10507;52.754;13.040;2023-08-17T12:39:04;5.80;;;2.20;;
20695;SDS011;10507;52.754;13.040;2023-08-17T12:41:33;4.43;;;1.98;;
20695;SDS011;10507;52.754;13.040;2023-08-17T12:44:02;2.83;;;2.17;;
20695;SDS011;10507;52.754;13.040;2023-08-17T12:46:30;2.70;;;2.22;;
20695;SDS011;10507;52.754;13.040;2023-08-17T12:48:59;4.28;;;2.10;;
20695;SDS011;10507;52.754;13.040;2023-08-17T12:51:27;3.72;;;2.38;;
20695;SDS011;10507;52.754;13.040;2023-08-17T12:53:55;4.63;;;2.75;;
20695;SDS011;10507;52.754;13.040;2023-08-17T12:56:22;4.43;;;2.60;;
20695;SDS011;10507;52.754;13.040;2023-08-17T12:58:52;5.25;;;2.50;;
20695;SDS011;10507;52.754;13.040;2023-08-17T13:01:19;3.85;;;2.40;;
20695;SDS011;10507;52.754;13.040;2023-08-17T13:03:47;4.70;;;2.70;;
20695;SDS011;10507;52.754;13.040;2023-08-17T13:06:15;3.50;;;2.72;;
20695;SDS011;10507;52.754;13.040;2023-08-17T13:08:43;3.15;;;2.55;;
20695;SDS011;10507;52.754;13.040;2023-08-17T13:11:11;3.72;;;2.60;;
20695;SDS011;10507;52.754;13.040;2023-08-17T13:13:39;3.88;;;2.45;;
20695;SDS011;10507;52.754;13.040;2023-08-17T13:16:09;3.58;;;2.45;;
20695;SDS011;10507;52.754;13.040;2023-08-17T13:18:37;5.07;;;2.58;;
20695;SDS011;10507;52.754;13.040;2023-08-17T13:21:05;4.05;;;2.60;;
20695;SDS011;10507;52.754;13.040;2023-08-17T13:23:34;7.03;;;2.88;;
20695;SDS011;10507;52.754;13.040;2023-08-17T13:26:02;5.00;;;2.80;;
20695;SDS011;10507;52.754;13.040;2023-08-17T13:28:30;3.20;;;2.80;;
20695;SDS011;10507;52.754;13.040;2023-08-17T13:30:58;5.32;;;3.10;;
20695;SDS011;10507;52.754;13.040;2023-08-17T13:33:47;3.33;;;2.63;;
20695;SDS011;10507;52.754;13.040;2023-08-17T13:36:15;3.40;;;2.53;;
20695;SDS011;10507;52.754;13.040;2023-08-17T13:38:43;4.45;;;3.08;;
20695;SDS011;10507;52.754;13.040;2023-08-17T13:41:11;4.72;;;2.78;;
20695;SDS011;10507;52.754;13.040;2023-08-17T13:43:40;4.05;;;3.03;;
20695;SDS011;10507;52.754;13.040;2023-08-17T13:46:08;3.50;;;2.88;;
20695;SDS011;10507;52.754;13.040;2023-08-17T13:48:36;4.38;;;3.17;;
20695;SDS011;10507;52.754;13.040;2023-08-17T13:51:06;4.60;;;3.35;;
20695;SDS011;10507;52.754;13.040;2023-08-17T13:53:34;3.90;;;3.00;;
20695;SDS011;10507;52.754;13.040;2023-08-17T13:56:02;3.53;;;2.80;;
20695;SDS011;10507;52.754;13.040;2023-08-17T13:58:30;4.10;;;3.05;;
20695;SDS011;10507;52.754;13.040;2023-08-17T14:00:58;3.78;;;3.10;;
20695;SDS011;10507;52.754;13.040;2023-08-17T14:03:26;4.50;;;3.10;;
20695;SDS011;10507;52.754;13.040;2023-08-17T14:05:54;3.03;;;2.65;;
20695;SDS011;10507;52.754;13.040;2023-08-17T14:08:24;4.80;;;2.90;;
20695;SDS011;10507;52.754;13.040;2023-08-17T14:10:51;3.78;;;2.72;;
20695;SDS011;10507;52.754;13.040;2023-08-17T14:13:22;5.38;;;3.42;;
20695;SDS011;10507;52.754;13.040;2023-08-17T14:15:50;4.68;;;2.92;;
20695;SDS011;10507;52.754;13.040;2023-08-17T14:18:21;3.80;;;2.75;;
20695;SDS011;10507;52.754;13.040;2023-08-17T14:20:48;4.05;;;3.63;;
20695;SDS011;10507;52.754;13.040;2023-08-17T14:23:16;4.20;;;2.90;;
20695;SDS011;10507;52.754;13.040;2023-08-17T14:25:45;4.38;;;3.15;;
20695;SDS011;10507;52.754;13.040;2023-08-17T14:28:13;5.30;;;3.25;;
20695;SDS011;10507;52.754;13.040;2023-08-17T14:30:41;4.25;;;2.92;;
20695;SDS011;10507;52.754;13.040;2023-08-17T14:33:09;3.80;;;3.13;;
20695;SDS011;10507;52.754;13.040;2023-08-17T14:35:38;3.67;;;2.88;;
20695;SDS011;10507;52.754;13.040;2023-08-17T14:38:08;3.45;;;2.80;;
20695;SDS011;10507;52.754;13.040;2023-08-17T14:40:41;6.00;;;2.95;;
20695;SDS011;10507;52.754;13.040;2023-08-17T14:43:12;3.50;;;2.63;;
20695;SDS011;10507;52.754;13.040;2023-08-17T14:45:41;3.83;;;2.88;;
20695;SDS011;10507;52.754;13.040;2023-08-17T14:48:10;3.85;;;2.63;;
20695;SDS011;10507;52.754;13.040;2023-08-17T14:50:38;3.47;;;2.88;;